Flight Track Log - Related Links

Times and Time Zones

All times are in EDT time to prevent confusion due to time zone crossing. See the ASQ6115 flight status page for this flight to view local times or setup timezone preferences in your user account.

Time Position Orientation Groundspeed Altitude Reporting Facility
EDT Latitude Longitude Course Direction KTS MPH feet Rate Location/Type
Tue 07:28:21 PM 42.0167 -87.9500 North 153 176 3,200  Level Chicago TRACON
Tue 07:29:21 PM 42.0500 -88.0000 312° West 232 267 4,500 818 Climbing Chicago TRACON
Tue 07:30:00 PM 42.2024 -87.9762 340° North  Level FlightAware Approximate
Tue 07:30:33 PM 42.1281 -88.0183 350° North 253 291 5,000  Level Chicago Center
Tue 07:31:00 PM 42.2817 -87.9996 350° North  Level FlightAware Approximate
Tue 07:31:35 PM 42.2014 -88.0192 360° North 263 303 6,300  Level Chicago Center
Tue 07:32:00 PM 42.3611 -88.0222 340° North  Level FlightAware Approximate
Tue 07:32:36 PM 42.2967 -88.0156 North 284 327 9,000  Level Chicago Center
Tue 07:33:00 PM 42.4388 -88.0500 North  Level FlightAware Approximate
Tue 07:33:38 PM 42.3869 -88.0083 North 311 358 10,900  Level Chicago Center
Tue 07:34:40 PM 42.4833 -88.0006 North 342 394 12,000 1,016 Climbing Chicago Center
Tue 07:35:42 PM 42.5847 -88.0189 352° North 365 420 13,000 919 Climbing Chicago Center
Tue 07:36:44 PM 42.6844 -88.0694 340° North 380 437 13,900 484 Climbing Chicago Center
Tue 07:37:46 PM 42.7844 -88.1222 339° North 383 441 14,000 48 Climbing Chicago Center
Tue 07:38:48 PM 42.8433 -88.2517 302° West 344 396 14,000 -435 Level Chicago Center
Tue 07:39:50 PM 42.8767 -88.3714 291° West 336 387 13,100 -1,016 Descending Chicago Center
Tue 07:40:52 PM 42.9094 -88.4922 290° West 337 388 11,900 -1,024 Descending Chicago Center
Tue 07:41:53 PM 42.9414 -88.6086 291° West 327 376 11,000 -537 Descending Chicago Center
Tue 07:42:55 PM 42.9683 -88.7256 288° West 322 371 10,800 -629 Descending Chicago Center
Tue 07:43:57 PM 42.9856 -88.8264 283° West 280 322 9,700 -1,355 Descending Chicago Center
Tue 07:44:59 PM 42.9997 -88.9181 282° West 251 289 8,000 -2,049 Descending Chicago Center
Tue 07:46:00 PM 43.0086 -89.0244 277° West 241 277 5,500 -2,049 Descending Chicago Center
Tue 07:47:02 PM 43.0156 -89.1203 276° West 248 285 3,800 -1,210 Descending Chicago Center
Tue 07:48:04 PM 43.0217 -89.2128 275° West 247 284 3,000 -484 Descending Chicago Center
Tue 07:49:06 PM 43.0347 -89.2886 283° West 217 250 2,800 -194 Descending Chicago Center

Login

Don't have an account? Register now (free) for customized features, flight alerts, and more!